Pagri, China
Current Conditions -  °F | °C
As of 11:50 AM on Sunday 21 Dec 2014 (Local Time) from VNKT Reporting Station
Few Clouds Few Clouds  
Wind Chill: 50°   Ceiling: Unl
Heat Index: 50°   Visibility: 4mi
Dew Point: 39°   Wind: 0mph
Humidity: 66%   Direction: NA
Pressure: 30.18"   Gusts: NA
Location:  27.73°N, 89.08°E
Report Text: VNKT 210350Z 00000KT 6000 FEW020 10/04 Q1022 NOSIG
Loading
Personal Weather Stations






























Interactive Weather Map New forecast layout! Learn more

10-Day Weather Forecast

Advertisements
Track Severe Weather on mobile